D55

Robertson Field Airport

Langdon, North Dakota, USA
METAR KD55 160535Z AUTO 27015KT 10SM CLR M01/M01 A2979 RMK AO2
Observed Flight Rules
Dec-16 @ 05:35 UTC (17 minutes ago) Visual Flight Rules
Wind Visibility Clouds
270° at 15 knots 10 miles
  • Clear skies
Temperatures Readings
Current -1°C / 30°F
Dewpoint -1°C / 30°F
Humidity 100%
Altimeter 29.79" Hg
Pressure 1009 hPa
Elevation 491
METAR KD55 160535Z AUTO 27015KT 10SM CLR M01/M01 A2979 RMK AO2
Observed Flight Rules
Dec-16 @ 05:35 UTC
(17 minutes ago)
VFR
Wind Visibility
270° at 15 knots 10 miles
Clouds
  • Clear skies
Temperature Dewpoint
-1°C / 30°F -1°C / 30°F
Humidity Altimeter Pressure
100% 29.79" Hg 1009 hPa